createdAt,value
2022-10-20T00:00:49.131Z,9.9
2022-10-20T00:01:51.580Z,9.9
2022-10-20T00:02:54.606Z,9.9
2022-10-20T00:03:57.823Z,9.9
2022-10-20T00:05:00.694Z,9.9
2022-10-20T00:06:04.345Z,9.9
2022-10-20T00:07:06.955Z,9.9
2022-10-20T00:08:10.489Z,9.9
2022-10-20T00:09:13.853Z,9.9
2022-10-20T00:10:16.639Z,9.9
2022-10-20T00:11:20.466Z,9.9
2022-10-20T00:12:24.230Z,9.9
2022-10-20T00:13:26.203Z,9.9
2022-10-20T00:14:28.940Z,9.9
2022-10-20T00:15:32.748Z,9.9
2022-10-20T00:16:36.181Z,9.9
2022-10-20T00:17:38.988Z,9.9
2022-10-20T00:18:42.158Z,9.9
2022-10-20T00:19:44.973Z,9.8
2022-10-20T00:20:48.191Z,9.9
2022-10-20T00:21:51.810Z,9.9
2022-10-20T00:22:54.873Z,9.9
2022-10-20T00:23:57.931Z,9.9
2022-10-20T00:25:00.643Z,9.8
2022-10-20T00:26:03.593Z,9.8
2022-10-20T00:27:07.383Z,9.8
2022-10-20T00:28:11.213Z,9.9
2022-10-20T00:29:15.070Z,9.9
2022-10-20T00:30:18.710Z,9.9
2022-10-20T00:31:28.170Z,9.8
2022-10-20T00:32:30.993Z,9.8
2022-10-20T00:33:33.515Z,9.8
2022-10-20T00:34:36.786Z,9.8
2022-10-20T00:35:40.055Z,9.8
2022-10-20T00:36:51.720Z,9.8
2022-10-20T00:37:54.228Z,9.8
2022-10-20T00:38:57.687Z,9.8
2022-10-20T00:40:01.388Z,9.8
2022-10-20T00:41:05.457Z,9.8
2022-10-20T00:42:07.979Z,9.7
2022-10-20T00:43:10.586Z,9.7
2022-10-20T00:44:14.250Z,9.7
2022-10-20T00:45:16.769Z,9.7
2022-10-20T00:46:19.672Z,9.7
2022-10-20T00:47:22.393Z,9.7
2022-10-20T00:48:25.108Z,9.7
2022-10-20T00:49:28.175Z,9.7
2022-10-20T00:50:31.242Z,9.6
2022-10-20T00:51:34.306Z,9.6
2022-10-20T00:52:38.332Z,9.6
2022-10-20T00:53:41.194Z,9.6
2022-10-20T00:54:43.625Z,9.6
2022-10-20T00:55:47.067Z,9.6
2022-10-20T00:56:49.351Z,9.6
2022-10-20T00:57:52.422Z,9.6
2022-10-20T00:58:55.584Z,9.6
2022-10-20T00:59:59.065Z,9.6
2022-10-20T01:01:02.099Z,9.6
2022-10-20T01:02:05.491Z,9.6
2022-10-20T01:03:09.905Z,9.5
2022-10-20T01:04:12.892Z,9.5
2022-10-20T01:05:16.318Z,9.5
2022-10-20T01:06:19.306Z,9.5
2022-10-20T01:07:22.175Z,9.5
2022-10-20T01:08:25.385Z,9.5
2022-10-20T01:09:28.786Z,9.5
2022-10-20T01:10:31.604Z,9.5
2022-10-20T01:11:34.766Z,9.4
2022-10-20T01:12:38.115Z,9.5
2022-10-20T01:13:41.483Z,9.4
2022-10-20T01:14:44.989Z,9.5
2022-10-20T01:15:48.663Z,9.4
2022-10-20T01:16:51.735Z,9.4
2022-10-20T01:17:54.635Z,9.4
2022-10-20T01:18:57.821Z,9.4
2022-10-20T01:20:00.614Z,9.4
2022-10-20T01:21:03.603Z,9.4
2022-10-20T01:22:06.491Z,9.4
2022-10-20T01:23:09.487Z,9.4
2022-10-20T01:24:13.189Z,9.4
2022-10-20T01:25:16.710Z,9.3
2022-10-20T01:26:20.434Z,9.3
2022-10-20T01:27:23.428Z,9.3
2022-10-20T01:28:26.144Z,9.3
2022-10-20T01:29:29.495Z,9.3
2022-10-20T01:30:32.996Z,9.3
2022-10-20T01:31:36.447Z,9.3
2022-10-20T01:32:38.883Z,9.3
2022-10-20T01:33:41.961Z,9.3
2022-10-20T01:34:53.007Z,9.3
2022-10-20T01:35:55.816Z,9.3
2022-10-20T01:36:59.155Z,9.3
2022-10-20T01:38:01.396Z,9.3
2022-10-20T01:39:04.463Z,9.3
2022-10-20T01:40:07.274Z,9.3
2022-10-20T01:41:10.064Z,9.3
2022-10-20T01:42:12.504Z,9.3
2022-10-20T01:43:15.597Z,9.3
2022-10-20T01:44:18.954Z,9.3
2022-10-20T01:45:21.752Z,9.3
2022-10-20T01:46:25.286Z,9.2
2022-10-20T01:47:28.672Z,9.2
2022-10-20T01:48:32.019Z,9.2
2022-10-20T01:49:35.481Z,9.2
2022-10-20T01:50:39.106Z,9.2
2022-10-20T01:52:44.015Z,9.2
2022-10-20T01:53:46.628Z,9.2
2022-10-20T01:54:49.346Z,9.2
2022-10-20T01:55:52.500Z,9.2
2022-10-20T01:56:55.572Z,9.2
2022-10-20T01:57:58.010Z,9.2
2022-10-20T01:59:00.916Z,9.2
2022-10-20T02:00:04.142Z,9.2
2022-10-20T02:01:07.856Z,9.2
2022-10-20T02:02:10.805Z,9.2
2022-10-20T02:03:14.866Z,9.2
2022-10-20T02:04:18.602Z,9.2
2022-10-20T02:05:21.163Z,9.2
2022-10-20T02:06:23.945Z,9.2
2022-10-20T02:07:26.712Z,9.2
2022-10-20T02:08:29.901Z,9.1
2022-10-20T02:09:32.645Z,9.1
2022-10-20T02:10:35.819Z,9.1
2022-10-20T02:11:38.891Z,9.1
2022-10-20T02:12:41.961Z,9.1
2022-10-20T02:13:44.400Z,9.1
2022-10-20T02:14:47.561Z,9.1
2022-10-20T02:15:50.684Z,9.1
2022-10-20T02:16:53.117Z,9.1
2022-10-20T02:17:56.352Z,9.1
2022-10-20T02:20:02.613Z,9
2022-10-20T02:21:06.706Z,9
2022-10-20T02:22:09.776Z,9
2022-10-20T02:23:12.645Z,9
2022-10-20T02:24:15.434Z,9
2022-10-20T02:25:17.980Z,9
2022-10-20T02:26:20.411Z,9
2022-10-20T02:27:23.761Z,9
2022-10-20T02:28:27.033Z,9
2022-10-20T02:29:29.910Z,9
2022-10-20T02:30:32.628Z,9
2022-10-20T02:31:35.072Z,9
2022-10-20T02:32:39.101Z,9
2022-10-20T02:33:43.044Z,9
2022-10-20T02:34:46.591Z,9
2022-10-20T02:35:49.106Z,8.9
2022-10-20T02:36:51.927Z,9
2022-10-20T02:37:55.035Z,9
2022-10-20T02:38:57.626Z,8.9
2022-10-20T02:40:00.604Z,8.9
2022-10-20T02:41:04.263Z,8.9
2022-10-20T02:42:07.698Z,8.9
2022-10-20T02:43:11.146Z,8.9
2022-10-20T02:44:13.939Z,8.9
2022-10-20T02:45:17.289Z,8.9
2022-10-20T02:46:19.895Z,8.9
2022-10-20T02:47:22.969Z,8.9
2022-10-20T02:48:25.683Z,8.9
2022-10-20T02:49:28.942Z,8.9
2022-10-20T02:50:32.346Z,8.9
2022-10-20T02:51:35.488Z,8.9
2022-10-20T02:52:39.005Z,8.9
2022-10-20T02:53:42.175Z,8.9
2022-10-20T02:54:45.346Z,8.9
2022-10-20T02:55:48.773Z,8.9
2022-10-20T02:56:51.841Z,8.9
2022-10-20T02:57:53.998Z,8.9
2022-10-20T02:58:56.727Z,8.9
2022-10-20T02:59:59.166Z,8.9
2022-10-20T03:01:02.239Z,8.9
2022-10-20T03:02:04.849Z,8.9
2022-10-20T03:03:08.625Z,8.9
2022-10-20T03:04:11.851Z,8.9
2022-10-20T03:05:15.305Z,8.9
2022-10-20T03:06:19.065Z,8.9
2022-10-20T03:07:21.674Z,8.9
2022-10-20T03:08:24.925Z,8.9
2022-10-20T03:09:28.528Z,8.9
2022-10-20T03:10:31.955Z,8.9
2022-10-20T03:11:34.741Z,8.9
2022-10-20T03:12:37.540Z,8.9
2022-10-20T03:13:40.323Z,8.9
2022-10-20T03:14:43.615Z,8.9
2022-10-20T03:15:46.687Z,8.9
2022-10-20T03:16:49.880Z,8.9
2022-10-20T03:17:53.054Z,8.9
2022-10-20T03:19:10.298Z,8.9
2022-10-20T03:20:14.964Z,8.9
2022-10-20T03:21:17.582Z,8.8
2022-10-20T03:22:21.625Z,8.9
2022-10-20T03:23:25.612Z,8.9
2022-10-20T03:24:28.594Z,8.9
2022-10-20T03:25:31.388Z,8.9
2022-10-20T03:26:34.740Z,8.9
2022-10-20T03:27:39.334Z,8.9
2022-10-20T03:28:42.874Z,8.9
2022-10-20T03:29:46.047Z,8.8
2022-10-20T03:30:49.038Z,8.9
2022-10-20T03:31:51.942Z,8.9
2022-10-20T03:32:54.731Z,8.8
2022-10-20T03:33:58.081Z,8.8
2022-10-20T03:35:00.948Z,8.8
2022-10-20T03:36:03.472Z,8.8
2022-10-20T03:37:06.708Z,8.8
2022-10-20T03:38:10.461Z,8.8
2022-10-20T03:39:13.604Z,8.8
2022-10-20T03:40:16.363Z,8.8
2022-10-20T03:41:19.273Z,8.8
2022-10-20T03:42:22.377Z,8.8
2022-10-20T03:43:25.753Z,8.8
2022-10-20T03:44:28.710Z,8.8
2022-10-20T03:45:31.587Z,8.8
2022-10-20T03:46:34.559Z,8.8
2022-10-20T03:47:37.451Z,8.8
2022-10-20T03:48:40.307Z,8.8
2022-10-20T03:49:43.145Z,8.8
2022-10-20T03:50:45.862Z,8.8
2022-10-20T03:51:48.302Z,8.8
2022-10-20T03:52:51.813Z,8.8
2022-10-20T03:53:55.556Z,8.8
2022-10-20T03:54:57.866Z,8.8
2022-10-20T03:56:00.689Z,8.8
2022-10-20T03:57:08.231Z,8.8
2022-10-20T03:58:11.017Z,8.8
2022-10-20T03:59:14.453Z,8.8
2022-10-20T04:00:16.887Z,8.7
2022-10-20T04:01:20.238Z,8.7
2022-10-20T04:02:23.033Z,8.7
2022-10-20T04:03:26.121Z,8.7
2022-10-20T04:04:29.054Z,8.7
2022-10-20T04:05:31.837Z,8.7
2022-10-20T04:06:33.874Z,8.7
2022-10-20T04:07:36.748Z,8.7
2022-10-20T04:08:40.865Z,8.7
2022-10-20T04:09:45.111Z,8.7
2022-10-20T04:10:47.908Z,8.7
2022-10-20T04:11:51.171Z,8.7
2022-10-20T04:12:53.604Z,8.6
2022-10-20T04:13:56.475Z,8.6
2022-10-20T04:14:59.899Z,8.6
2022-10-20T04:16:02.341Z,8.6
2022-10-20T04:17:05.415Z,8.6
2022-10-20T04:18:08.611Z,8.6
2022-10-20T04:19:10.775Z,8.6
2022-10-20T04:20:13.848Z,8.6
2022-10-20T04:21:16.367Z,8.6
2022-10-20T04:22:19.722Z,8.6
2022-10-20T04:23:22.443Z,8.6
2022-10-20T04:24:25.892Z,8.6
2022-10-20T04:25:29.667Z,8.6
2022-10-20T04:26:33.187Z,8.6
2022-10-20T04:27:36.940Z,8.6
2022-10-20T04:28:40.878Z,8.6
2022-10-20T04:29:44.621Z,8.5
2022-10-20T04:30:47.133Z,8.5
2022-10-20T04:31:49.781Z,8.5
2022-10-20T04:32:53.131Z,8.5
2022-10-20T04:33:56.285Z,8.5
2022-10-20T04:34:59.096Z,8.5
2022-10-20T04:36:01.895Z,8.5
2022-10-20T04:37:04.697Z,8.5
2022-10-20T04:38:07.022Z,8.5
2022-10-20T04:39:10.082Z,8.5
2022-10-20T04:40:13.320Z,8.5
2022-10-20T04:41:17.118Z,8.4
2022-10-20T04:42:20.177Z,8.4
2022-10-20T04:43:23.352Z,8.4
2022-10-20T04:44:26.135Z,8.4
2022-10-20T04:45:28.846Z,8.4
2022-10-20T04:46:31.274Z,8.5
2022-10-20T04:47:35.748Z,8.4
2022-10-20T04:48:39.188Z,8.4
2022-10-20T04:49:42.010Z,8.4
2022-10-20T04:50:45.091Z,8.4
2022-10-20T04:51:48.074Z,8.4
2022-10-20T04:52:51.049Z,8.4
2022-10-20T04:53:54.024Z,8.4
2022-10-20T04:54:56.979Z,8.4
2022-10-20T04:56:00.465Z,8.4
2022-10-20T04:57:03.948Z,8.4
2022-10-20T04:58:06.752Z,8.4
2022-10-20T04:59:14.427Z,8.4
2022-10-20T05:00:18.169Z,8.4
2022-10-20T05:01:21.480Z,8.4
2022-10-20T05:02:24.678Z,8.4
2022-10-20T05:03:27.821Z,8.4
2022-10-20T05:04:30.328Z,8.4
2022-10-20T05:05:33.195Z,8.4
2022-10-20T05:06:35.994Z,8.4
2022-10-20T05:07:40.279Z,8.4
2022-10-20T05:08:43.446Z,8.4
2022-10-20T05:09:47.079Z,8.4
2022-10-20T05:10:50.236Z,8.4
2022-10-20T05:11:53.459Z,8.4
2022-10-20T05:12:56.846Z,8.4
2022-10-20T05:13:59.609Z,8.4
2022-10-20T05:15:02.898Z,8.4
2022-10-20T05:16:04.774Z,8.4
2022-10-20T05:17:10.872Z,8.4
2022-10-20T05:18:13.922Z,8.4
2022-10-20T05:19:16.424Z,8.4
2022-10-20T05:20:19.288Z,8.4
2022-10-20T05:21:23.021Z,8.4
2022-10-20T05:22:26.087Z,8.4
2022-10-20T05:23:28.790Z,8.4
2022-10-20T05:24:32.495Z,8.4
2022-10-20T05:25:37.503Z,8.4
2022-10-20T05:26:40.650Z,8.3
2022-10-20T05:27:44.420Z,8.3
2022-10-20T05:28:48.243Z,8.3
2022-10-20T05:29:51.687Z,8.3
2022-10-20T05:31:01.846Z,8.3
2022-10-20T05:32:05.174Z,8.4
2022-10-20T05:33:07.610Z,8.4
2022-10-20T05:34:10.700Z,8.3
2022-10-20T05:35:14.142Z,8.3
2022-10-20T05:36:22.061Z,8.4
2022-10-20T05:37:27.641Z,8.4
2022-10-20T05:38:30.637Z,8.4
2022-10-20T05:39:34.071Z,8.3
2022-10-20T05:40:37.503Z,8.3
2022-10-20T05:41:40.848Z,8.3
2022-10-20T05:42:44.112Z,8.3
2022-10-20T05:43:47.794Z,8.4
2022-10-20T05:44:51.812Z,8.3
2022-10-20T05:45:54.956Z,8.3
2022-10-20T05:46:57.223Z,8.3
2022-10-20T05:48:00.610Z,8.3
2022-10-20T05:49:03.415Z,8.3
2022-10-20T05:50:06.842Z,8.3
2022-10-20T05:51:15.676Z,8.3
2022-10-20T05:52:18.749Z,8.3
2022-10-20T05:53:21.188Z,8.3
2022-10-20T05:54:24.263Z,8.3
2022-10-20T05:55:27.615Z,8.3
2022-10-20T05:56:30.120Z,8.3
2022-10-20T05:57:32.634Z,8.2
2022-10-20T05:58:35.360Z,8.2
2022-10-20T05:59:38.799Z,8.2
2022-10-20T06:00:42.674Z,8.2
2022-10-20T06:01:45.699Z,8.2
2022-10-20T06:02:49.057Z,8.2
2022-10-20T06:03:52.574Z,8.2
2022-10-20T06:04:55.464Z,8.2
2022-10-20T06:05:58.338Z,8.2
2022-10-20T06:07:01.995Z,8.2
2022-10-20T06:08:05.340Z,8.2
2022-10-20T06:09:08.676Z,8.2
2022-10-20T06:10:11.748Z,8.2
2022-10-20T06:11:14.901Z,8.2
2022-10-20T06:12:18.356Z,8.2
2022-10-20T06:13:21.031Z,8.2
2022-10-20T06:14:23.546Z,8.2
2022-10-20T06:15:27.045Z,8.2
2022-10-20T06:16:30.915Z,8.2
2022-10-20T06:17:34.188Z,8.2
2022-10-20T06:18:37.691Z,8.1
2022-10-20T06:19:40.196Z,8.2
2022-10-20T06:20:43.557Z,8.1
2022-10-20T06:21:49.502Z,8.1
2022-10-20T06:22:52.833Z,8.1
2022-10-20T06:23:55.826Z,8.1
2022-10-20T06:24:58.962Z,8.2
2022-10-20T06:26:01.950Z,8.2
2022-10-20T06:27:04.467Z,8.2
2022-10-20T06:28:08.063Z,8.2
2022-10-20T06:29:11.142Z,8.2
2022-10-20T06:30:14.201Z,8.2
2022-10-20T06:31:17.140Z,8.2
2022-10-20T06:32:20.925Z,8.2
2022-10-20T06:33:23.896Z,8.2
2022-10-20T06:34:26.720Z,8.2
2022-10-20T06:35:29.672Z,8.3
2022-10-20T06:36:33.294Z,8.3
2022-10-20T06:37:36.369Z,8.3
2022-10-20T06:38:39.820Z,8.3
2022-10-20T06:39:43.175Z,8.3
2022-10-20T06:40:45.611Z,8.3
2022-10-20T06:41:48.121Z,8.4
2022-10-20T06:42:51.379Z,8.4
2022-10-20T06:43:54.866Z,8.4
2022-10-20T06:44:58.561Z,8.4
2022-10-20T06:46:01.430Z,8.4
2022-10-20T06:47:05.135Z,8.4
2022-10-20T06:48:08.877Z,8.4
2022-10-20T06:49:11.960Z,8.5
2022-10-20T06:50:14.704Z,8.5
2022-10-20T06:51:17.859Z,8.5
2022-10-20T06:52:20.954Z,8.5
2022-10-20T06:53:23.649Z,8.5
2022-10-20T06:54:27.310Z,8.5
2022-10-20T06:55:30.536Z,8.6
2022-10-20T06:56:33.890Z,8.6
2022-10-20T06:57:36.768Z,8.6
2022-10-20T06:58:40.222Z,8.6
2022-10-20T06:59:43.842Z,8.7
2022-10-20T07:00:47.257Z,8.7
2022-10-20T07:01:50.570Z,8.7
2022-10-20T07:02:54.545Z,8.8
2022-10-20T07:03:58.345Z,8.8
2022-10-20T07:05:01.514Z,8.8
2022-10-20T07:06:04.405Z,8.9
2022-10-20T07:07:08.139Z,8.9
2022-10-20T07:08:11.208Z,8.9
2022-10-20T07:09:14.545Z,8.9
2022-10-20T07:10:17.727Z,9
2022-10-20T07:11:20.820Z,9
2022-10-20T07:12:23.605Z,9
2022-10-20T07:13:27.397Z,9.1
2022-10-20T07:14:33.459Z,9.1
2022-10-20T07:15:37.186Z,9.1
2022-10-20T07:16:39.897Z,9.2
2022-10-20T07:17:43.310Z,9.2
2022-10-20T07:18:47.245Z,9.2
2022-10-20T07:19:51.311Z,9.2
2022-10-20T07:20:54.024Z,9.3
2022-10-20T07:21:57.683Z,9.3
2022-10-20T07:23:00.290Z,9.3
2022-10-20T07:24:03.721Z,9.4
2022-10-20T07:25:06.903Z,9.4
2022-10-20T07:26:09.983Z,9.4
2022-10-20T07:27:13.356Z,9.4
2022-10-20T07:28:16.155Z,9.5
2022-10-20T07:29:19.615Z,9.5
2022-10-20T07:30:22.644Z,9.6
2022-10-20T07:31:25.836Z,9.6
2022-10-20T07:32:28.993Z,9.6
2022-10-20T07:33:32.135Z,9.6
2022-10-20T07:34:35.276Z,9.6
2022-10-20T07:35:39.023Z,9.7
2022-10-20T07:36:42.755Z,9.7
2022-10-20T07:37:46.206Z,9.7
2022-10-20T07:38:49.612Z,9.7
2022-10-20T07:39:52.673Z,9.8
2022-10-20T07:41:00.711Z,9.8
2022-10-20T07:42:03.932Z,9.9
2022-10-20T07:43:06.712Z,9.9
2022-10-20T07:44:09.593Z,10
2022-10-20T07:45:12.462Z,10
2022-10-20T07:46:15.726Z,10
2022-10-20T07:47:19.099Z,10.1
2022-10-20T07:48:22.169Z,10.1
2022-10-20T07:49:45.718Z,10.2
2022-10-20T07:50:49.741Z,10.2
2022-10-20T07:51:52.651Z,10.3
2022-10-20T07:52:56.031Z,10.3
2022-10-20T07:54:01.637Z,10.3
2022-10-20T07:55:39.322Z,10.3
2022-10-20T07:56:43.292Z,10.3
2022-10-20T07:57:46.660Z,10.4
2022-10-20T07:58:49.618Z,10.4
2022-10-20T07:59:52.609Z,10.4
2022-10-20T08:00:55.569Z,10.5
2022-10-20T08:02:01.102Z,10.5
2022-10-20T08:03:04.413Z,10.5
2022-10-20T08:04:07.212Z,10.6
2022-10-20T08:05:10.115Z,10.6
2022-10-20T08:06:14.388Z,10.7
2022-10-20T08:07:17.475Z,10.7
2022-10-20T08:08:21.204Z,10.8
2022-10-20T08:09:23.713Z,10.8
2022-10-20T08:10:26.430Z,10.8
2022-10-20T08:11:29.523Z,10.9
2022-10-20T08:12:33.279Z,10.9
2022-10-20T08:13:36.785Z,11
2022-10-20T08:14:40.855Z,11.1
2022-10-20T08:15:45.478Z,11.1
2022-10-20T08:16:51.580Z,11.2
2022-10-20T08:17:56.213Z,11.2
2022-10-20T08:19:00.913Z,11.3
2022-10-20T08:20:07.287Z,11.3
2022-10-20T08:21:12.973Z,11.4
2022-10-20T08:22:17.077Z,11.4
2022-10-20T08:23:20.628Z,11.5
2022-10-20T08:24:23.561Z,11.5
2022-10-20T08:25:25.953Z,11.6
2022-10-20T08:26:29.016Z,11.6
2022-10-20T08:27:32.006Z,11.7
2022-10-20T08:28:34.956Z,11.8
2022-10-20T08:29:38.133Z,11.8
2022-10-20T08:30:41.558Z,11.9
2022-10-20T08:31:44.908Z,12
2022-10-20T08:32:48.068Z,12.1
2022-10-20T08:33:54.090Z,12.2
2022-10-20T08:34:57.717Z,12.3
2022-10-20T08:36:00.241Z,12.4
2022-10-20T08:37:03.346Z,12.5
2022-10-20T08:38:07.518Z,12.5
2022-10-20T08:39:10.850Z,12.7
2022-10-20T08:40:14.017Z,12.7
2022-10-20T08:41:16.821Z,12.8
2022-10-20T08:42:19.820Z,12.9
2022-10-20T08:43:22.694Z,13
2022-10-20T08:44:25.786Z,13.1
2022-10-20T08:45:28.571Z,13.2
2022-10-20T08:46:30.624Z,13.2
2022-10-20T08:47:34.762Z,13.3
2022-10-20T08:48:40.149Z,13.4
2022-10-20T08:49:43.485Z,13.4
2022-10-20T08:50:46.204Z,13.5
2022-10-20T08:51:50.280Z,13.5
2022-10-20T08:52:52.983Z,13.5
2022-10-20T08:53:56.861Z,13.5
2022-10-20T08:54:59.985Z,13.5
2022-10-20T08:56:02.521Z,13.5
2022-10-20T08:57:06.246Z,13.4
2022-10-20T08:58:09.310Z,13.4
2022-10-20T08:59:11.626Z,13.4
2022-10-20T09:00:14.421Z,13.5
2022-10-20T09:01:18.146Z,13.5
2022-10-20T09:02:20.967Z,13.5
2022-10-20T09:03:24.033Z,13.5
2022-10-20T09:04:26.551Z,13.5
2022-10-20T09:05:29.902Z,13.6
2022-10-20T09:06:33.047Z,13.6
2022-10-20T09:07:37.287Z,13.6
2022-10-20T09:08:42.157Z,13.7
2022-10-20T09:09:46.597Z,13.7
2022-10-20T09:10:49.401Z,13.7
2022-10-20T09:11:53.164Z,13.7
2022-10-20T09:12:57.168Z,13.8
2022-10-20T09:14:00.386Z,13.9
2022-10-20T09:15:03.479Z,13.9
2022-10-20T09:16:06.696Z,14
2022-10-20T09:17:12.446Z,14.1
2022-10-20T09:18:15.439Z,14.2
2022-10-20T09:19:18.577Z,14.3
2022-10-20T09:20:21.947Z,14.3
2022-10-20T09:21:25.093Z,14.4
2022-10-20T09:22:36.632Z,14.5
2022-10-20T09:23:43.461Z,14.6
2022-10-20T09:24:46.246Z,14.7
2022-10-20T09:25:50.072Z,14.8
2022-10-20T09:27:00.792Z,14.8
2022-10-20T09:28:03.535Z,14.9
2022-10-20T09:29:15.495Z,15
2022-10-20T09:30:18.928Z,15.1
2022-10-20T09:31:22.200Z,15.1
2022-10-20T09:32:55.300Z,15.1
2022-10-20T09:33:58.629Z,15.2
2022-10-20T09:35:01.513Z,15.4
2022-10-20T09:36:04.934Z,15.4
2022-10-20T09:37:08.038Z,15.5
2022-10-20T09:38:10.832Z,15.6
2022-10-20T09:39:14.531Z,15.6
2022-10-20T09:40:17.721Z,15.7
2022-10-20T09:41:22.100Z,15.7
2022-10-20T09:42:25.594Z,15.8
2022-10-20T09:43:29.325Z,15.9
2022-10-20T09:44:33.054Z,15.9
2022-10-20T09:45:36.726Z,15.9
2022-10-20T09:46:39.632Z,16
2022-10-20T09:47:42.435Z,16
2022-10-20T09:48:44.964Z,16
2022-10-20T09:49:48.143Z,16
2022-10-20T09:50:51.414Z,16
2022-10-20T09:51:53.606Z,16
2022-10-20T09:52:56.635Z,16
2022-10-20T09:54:00.538Z,16.1
2022-10-20T09:55:03.851Z,16.1
2022-10-20T09:56:07.595Z,16.2
2022-10-20T09:57:11.731Z,16.2
2022-10-20T09:58:18.220Z,16.3
2022-10-20T09:59:21.395Z,16.3
2022-10-20T10:00:39.092Z,16.4
2022-10-20T10:01:43.366Z,16.5
2022-10-20T10:02:45.888Z,16.6
2022-10-20T10:03:48.957Z,16.6
2022-10-20T10:04:52.047Z,16.7
2022-10-20T10:05:55.406Z,16.8
2022-10-20T10:06:59.051Z,16.8
2022-10-20T10:08:02.203Z,16.9
2022-10-20T10:09:05.425Z,16.9
2022-10-20T10:10:09.796Z,17
2022-10-20T10:11:12.969Z,17.1
2022-10-20T10:12:17.050Z,17.1
2022-10-20T10:13:25.756Z,17.1
2022-10-20T10:14:29.198Z,17.1
2022-10-20T10:15:32.470Z,17.1
2022-10-20T10:16:35.812Z,17.1
2022-10-20T10:17:40.001Z,17.1
2022-10-20T10:18:49.696Z,17.2
2022-10-20T10:19:56.914Z,17.2
2022-10-20T10:21:00.631Z,17.2
2022-10-20T10:22:04.288Z,17.3
2022-10-20T10:23:07.166Z,17.3
2022-10-20T10:24:09.974Z,17.3
2022-10-20T10:25:13.772Z,17.4
2022-10-20T10:26:17.146Z,17.4
2022-10-20T10:27:21.237Z,17.5
2022-10-20T10:28:24.677Z,17.5
2022-10-20T10:29:28.340Z,17.6
2022-10-20T10:30:32.340Z,17.7
2022-10-20T10:31:35.594Z,17.7
2022-10-20T10:32:39.130Z,17.8
2022-10-20T10:33:41.789Z,17.9
2022-10-20T10:34:44.778Z,17.9
2022-10-20T10:35:48.121Z,18
2022-10-20T10:36:50.557Z,18.1
2022-10-20T10:37:53.727Z,18
2022-10-20T10:38:56.763Z,18.1
2022-10-20T10:39:59.861Z,18.1
2022-10-20T10:41:03.208Z,18.1
2022-10-20T10:42:06.320Z,18.1
2022-10-20T10:43:10.458Z,18.1
2022-10-20T10:44:13.965Z,18.1
2022-10-20T10:45:17.333Z,18.1
2022-10-20T10:46:20.453Z,18.2
2022-10-20T10:47:23.172Z,18.2
2022-10-20T10:48:25.890Z,18.2
2022-10-20T10:49:29.343Z,18.3
2022-10-20T10:50:32.798Z,18.4
2022-10-20T10:51:35.971Z,18.4
2022-10-20T10:52:38.955Z,18.6
2022-10-20T10:53:42.054Z,18.6
2022-10-20T10:54:45.514Z,18.7
2022-10-20T10:55:50.458Z,18.8
2022-10-20T10:56:53.567Z,18.8
2022-10-20T10:57:56.037Z,18.9
2022-10-20T10:59:00.133Z,19
2022-10-20T11:00:02.562Z,19.1
2022-10-20T11:01:06.264Z,19.2
2022-10-20T11:02:09.195Z,19.3
2022-10-20T11:03:11.980Z,19.4
2022-10-20T11:04:15.324Z,19.5
2022-10-20T11:05:18.843Z,19.6
2022-10-20T11:06:21.957Z,19.7
2022-10-20T11:07:25.347Z,19.8
2022-10-20T11:08:29.482Z,19.8
2022-10-20T11:09:32.488Z,20
2022-10-20T11:10:35.616Z,20.1
2022-10-20T11:11:38.687Z,20.2
2022-10-20T11:12:42.351Z,20.3
2022-10-20T11:13:45.445Z,20.4
2022-10-20T11:14:49.632Z,20.4
2022-10-20T11:15:53.366Z,20.4
2022-10-20T11:16:56.449Z,20.4
2022-10-20T11:17:59.709Z,20.4
2022-10-20T11:19:02.578Z,20.4
2022-10-20T11:20:05.645Z,20.3
2022-10-20T11:21:08.796Z,20.3
2022-10-20T11:22:16.119Z,20.3
2022-10-20T11:23:18.424Z,20.2
2022-10-20T11:24:21.761Z,20.2
2022-10-20T11:25:25.244Z,20.2
2022-10-20T11:26:30.245Z,20.2
2022-10-20T11:27:34.214Z,20.3
2022-10-20T11:28:38.739Z,20.3
2022-10-20T11:29:42.111Z,20.4
2022-10-20T11:30:46.314Z,20.5
2022-10-20T11:31:48.467Z,20.6
2022-10-20T11:32:51.437Z,20.7
2022-10-20T11:33:54.880Z,20.7
2022-10-20T11:34:57.952Z,20.8
2022-10-20T11:36:01.413Z,20.9
2022-10-20T11:37:03.844Z,20.9
2022-10-20T11:38:07.265Z,21
2022-10-20T11:39:10.263Z,21
2022-10-20T11:40:13.335Z,21
2022-10-20T11:41:16.363Z,21.1
2022-10-20T11:42:18.872Z,21.1
2022-10-20T11:43:22.311Z,21.1
2022-10-20T11:44:25.407Z,21.2
2022-10-20T11:45:28.786Z,21.2
2022-10-20T11:46:32.944Z,21.3
2022-10-20T11:47:36.563Z,21.4
2022-10-20T11:48:39.931Z,21.4
2022-10-20T11:49:43.353Z,21.4
2022-10-20T11:50:46.967Z,21.5
2022-10-20T11:51:50.133Z,21.5
2022-10-20T11:52:53.251Z,21.5
2022-10-20T11:53:56.344Z,21.6
2022-10-20T11:54:59.758Z,21.6
2022-10-20T11:56:02.574Z,21.6
2022-10-20T11:57:05.713Z,21.7
2022-10-20T11:58:08.583Z,21.6
2022-10-20T11:59:11.935Z,21.6
2022-10-20T12:00:15.837Z,21.6
2022-10-20T12:01:19.196Z,21.5
2022-10-20T12:02:23.321Z,21.5
2022-10-20T12:03:26.033Z,21.5
2022-10-20T12:04:29.834Z,21.5
2022-10-20T12:05:33.282Z,21.6
2022-10-20T12:06:36.367Z,21.6
2022-10-20T12:07:39.743Z,21.7
2022-10-20T12:08:43.153Z,21.7
2022-10-20T12:09:46.378Z,21.7
2022-10-20T12:10:48.723Z,21.7
2022-10-20T12:11:51.535Z,21.8
2022-10-20T12:12:54.115Z,21.9
2022-10-20T12:13:56.987Z,21.9
2022-10-20T12:14:59.858Z,21.9
2022-10-20T12:16:03.394Z,21.9
2022-10-20T12:17:06.774Z,21.9
2022-10-20T12:18:10.934Z,22
2022-10-20T12:19:14.335Z,22
2022-10-20T12:20:17.770Z,22
2022-10-20T12:21:21.180Z,22
2022-10-20T12:22:24.636Z,22
2022-10-20T12:23:27.581Z,22
2022-10-20T12:24:30.856Z,22
2022-10-20T12:25:33.644Z,22
2022-10-20T12:26:45.157Z,21.9
2022-10-20T12:27:48.003Z,21.9
2022-10-20T12:28:50.913Z,21.8
2022-10-20T12:29:54.169Z,21.7
2022-10-20T12:30:57.315Z,21.6
2022-10-20T12:32:00.138Z,21.5
2022-10-20T12:33:03.066Z,21.4
2022-10-20T12:34:06.970Z,21.2
2022-10-20T12:35:10.516Z,21.1
2022-10-20T12:36:13.615Z,20.9
2022-10-20T12:37:16.053Z,20.9
2022-10-20T12:38:19.083Z,20.8
2022-10-20T12:39:21.860Z,20.7
2022-10-20T12:40:25.385Z,20.7
2022-10-20T12:41:28.565Z,20.7
2022-10-20T12:42:31.471Z,20.6
2022-10-20T12:43:34.139Z,20.5
2022-10-20T12:44:37.205Z,20.5
2022-10-20T12:45:41.068Z,20.4
2022-10-20T12:46:43.969Z,20.4
2022-10-20T12:47:47.119Z,20.4
2022-10-20T12:48:50.014Z,20.3
2022-10-20T12:49:54.109Z,20.3
2022-10-20T12:50:57.882Z,20.2
2022-10-20T12:52:00.693Z,20.2
2022-10-20T12:53:03.502Z,20.2
2022-10-20T12:54:05.747Z,20.2
2022-10-20T12:55:08.996Z,20.2
2022-10-20T12:56:12.481Z,20.1
2022-10-20T12:57:15.857Z,20.1
2022-10-20T12:58:18.725Z,20.1
2022-10-20T12:59:22.150Z,20
2022-10-20T13:00:25.252Z,20
2022-10-20T13:01:28.399Z,19.9
2022-10-20T13:02:31.675Z,19.9
2022-10-20T13:03:35.221Z,19.9
2022-10-20T13:04:45.995Z,19.9
2022-10-20T13:05:49.769Z,19.8
2022-10-20T13:06:53.274Z,19.8
2022-10-20T13:07:56.726Z,19.8
2022-10-20T13:09:00.461Z,19.7
2022-10-20T13:10:05.451Z,19.7
2022-10-20T13:11:08.188Z,19.6
2022-10-20T13:12:11.360Z,19.6
2022-10-20T13:13:14.793Z,19.5
2022-10-20T13:14:17.904Z,19.5
2022-10-20T13:15:21.010Z,19.4
2022-10-20T13:16:24.098Z,19.4
2022-10-20T13:17:27.013Z,19.3
2022-10-20T13:18:29.545Z,19.3
2022-10-20T13:19:31.980Z,19.3
2022-10-20T13:20:34.805Z,19.3
2022-10-20T13:21:38.889Z,19.2
2022-10-20T13:22:41.785Z,19.2
2022-10-20T13:23:45.371Z,19.1
2022-10-20T13:24:48.716Z,19.1
2022-10-20T13:25:54.285Z,19
2022-10-20T13:26:57.429Z,18.9
2022-10-20T13:28:00.023Z,18.9
2022-10-20T13:29:02.886Z,18.8
2022-10-20T13:30:05.919Z,18.8
2022-10-20T13:31:09.328Z,18.8
2022-10-20T13:32:12.694Z,18.7
2022-10-20T13:34:05.587Z,18.7
2022-10-20T13:35:10.150Z,18.6
2022-10-20T13:36:13.268Z,18.5
2022-10-20T13:37:23.511Z,18.4
2022-10-20T13:38:27.018Z,18.3
2022-10-20T13:39:30.185Z,18.3
2022-10-20T13:40:37.399Z,18.3
2022-10-20T13:41:47.992Z,18.3
2022-10-20T13:42:51.270Z,18.3
2022-10-20T13:44:03.046Z,18.3
2022-10-20T13:45:13.454Z,18.4
2022-10-20T13:46:17.073Z,18.4
2022-10-20T13:47:20.167Z,18.4
2022-10-20T13:48:24.033Z,18.4
2022-10-20T13:49:28.271Z,18.5
2022-10-20T13:50:31.098Z,18.5
2022-10-20T13:51:33.713Z,18.5
2022-10-20T13:52:39.402Z,18.5
2022-10-20T13:53:42.559Z,18.5
2022-10-20T13:54:46.007Z,18.5
2022-10-20T13:55:48.846Z,18.5
2022-10-20T13:56:52.389Z,18.4
2022-10-20T13:57:56.061Z,18.4
2022-10-20T13:59:06.576Z,18.4
2022-10-20T14:00:09.983Z,18.4
2022-10-20T14:01:13.365Z,18.4
2022-10-20T14:02:17.328Z,18.4
2022-10-20T14:03:20.394Z,18.4
2022-10-20T14:04:23.852Z,18.3
2022-10-20T14:05:27.585Z,18.3
2022-10-20T14:06:30.120Z,18.3
2022-10-20T14:07:34.177Z,18.2
2022-10-20T14:08:38.676Z,18.2
2022-10-20T14:09:54.586Z,18.2
2022-10-20T14:10:57.929Z,18.2
2022-10-20T14:12:00.724Z,18.1
2022-10-20T14:13:03.792Z,18.1
2022-10-20T14:14:07.423Z,18
2022-10-20T14:15:11.102Z,18
2022-10-20T14:16:14.634Z,17.9
2022-10-20T14:17:17.877Z,17.9
2022-10-20T14:18:21.383Z,17.8
2022-10-20T14:19:24.806Z,17.8
2022-10-20T14:20:27.591Z,17.7
2022-10-20T14:21:30.661Z,17.7
2022-10-20T14:22:34.646Z,17.6
2022-10-20T14:23:39.886Z,17.6
2022-10-20T14:24:43.777Z,17.5
2022-10-20T14:25:46.579Z,17.5
2022-10-20T14:26:49.825Z,17.5
2022-10-20T14:27:53.091Z,17.4
2022-10-20T14:28:56.495Z,17.4